Time;durP1;ratioP1;P1;durP2;ratioP2;P2;SDS_P1;SDS_P2;PMS_P1;PMS_P2;Temp;Humidity;BMP_temperature;BMP_pressure;BME280_temperature;BME280_humidity;BME280_pressure;Samples;Min_cycle;Max_cycle;Signal;HPM_P1;HPM_P2
2022/03/24 00:02:07;;;;;;;6.43;5.00;;;5.70;82.30;;;;;;5030160;28;20432;-71
2022/03/24 00:04:33;;;;;;;11.30;6.80;;;5.70;82.50;;;;;;5035070;28;20939;-70
2022/03/24 00:06:59;;;;;;;8.40;6.10;;;5.60;82.90;;;;;;5035620;28;20246;-70
2022/03/24 00:09:24;;;;;;;7.07;5.17;;;5.60;83.30;;;;;;5035538;28;20261;-71
2022/03/24 00:11:50;;;;;;;7.80;5.83;;;5.50;83.50;;;;;;5024053;28;20186;-71
2022/03/24 00:14:18;;;;;;;10.13;5.27;;;5.50;84.00;;;;;;5015018;28;20688;-70
2022/03/24 00:16:44;;;;;;;6.90;5.30;;;5.40;84.20;;;;;;5015747;28;20534;-70
2022/03/24 00:19:10;;;;;;;9.70;5.57;;;5.40;85.40;;;;;;5015267;28;20195;-71
2022/03/24 00:21:36;;;;;;;9.07;6.40;;;5.40;85.80;;;;;;5023495;28;20666;-70
2022/03/24 00:24:03;;;;;;;6.17;5.57;;;5.40;86.10;;;;;;5034602;28;20449;-70
2022/03/24 00:26:29;;;;;;;8.10;5.10;;;5.30;86.20;;;;;;5034924;28;20938;-70
2022/03/24 00:28:54;;;;;;;9.57;5.50;;;5.30;87.00;;;;;;5034866;28;20174;-70
2022/03/24 00:31:20;;;;;;;6.77;5.37;;;5.20;87.50;;;;;;5028476;28;21018;-70
2022/03/24 00:33:46;;;;;;;7.17;5.70;;;5.20;88.00;;;;;;5014666;28;20294;-70
2022/03/24 00:36:14;;;;;;;6.65;5.93;;;5.20;88.60;;;;;;5015250;28;20514;-70
2022/03/24 00:38:40;;;;;;;5.30;4.40;;;5.20;88.80;;;;;;5014875;28;20174;-70
2022/03/24 00:41:06;;;;;;;11.68;6.15;;;5.20;88.90;;;;;;5031849;28;20178;-70
2022/03/24 00:43:32;;;;;;;6.93;5.43;;;5.10;88.90;;;;;;5034472;28;20174;-70
2022/03/24 00:45:58;;;;;;;8.18;5.93;;;5.00;89.60;;;;;;5034592;28;20668;-70
2022/03/24 00:48:25;;;;;;;6.45;5.18;;;5.00;90.10;;;;;;5034682;28;20197;-72
2022/03/24 00:50:51;;;;;;;7.22;5.45;;;4.90;90.30;;;;;;5019715;28;20179;-70
2022/03/24 00:53:17;;;;;;;5.22;4.22;;;4.90;90.30;;;;;;5013205;28;20665;-71
2022/03/24 00:55:43;;;;;;;9.50;7.20;;;4.90;90.30;;;;;;5013428;28;20191;-70
2022/03/24 00:58:10;;;;;;;7.65;5.25;;;4.80;90.40;;;;;;5014666;28;20483;-69
2022/03/24 01:00:38;;;;;;;7.25;5.63;;;4.80;90.50;;;;;;5025460;28;20586;-71
2022/03/24 01:03:06;;;;;;;5.38;4.45;;;4.80;90.90;;;;;;5034077;28;20550;-75
2022/03/24 01:05:34;;;;;;;5.80;5.13;;;4.70;90.80;;;;;;5034116;28;20272;-71
2022/03/24 01:08:00;;;;;;;7.25;5.90;;;4.60;91.20;;;;;;5034541;28;20170;-69
2022/03/24 01:10:26;;;;;;;7.33;4.97;;;4.70;91.20;;;;;;5032516;28;20675;-70
2022/03/24 01:12:51;;;;;;;7.17;5.60;;;4.60;91.30;;;;;;5034203;28;20393;-70
2022/03/24 01:15:20;;;;;;;7.60;5.87;;;4.50;91.80;;;;;;5033754;28;20456;-70
2022/03/24 01:17:47;;;;;;;10.02;6.28;;;4.50;92.20;;;;;;5034268;28;20166;-70
2022/03/24 01:20:14;;;;;;;13.80;6.75;;;4.50;92.50;;;;;;5025775;28;20258;-71
2022/03/24 01:22:40;;;;;;;9.20;6.05;;;4.40;92.60;;;;;;5014226;28;20170;-70
2022/03/24 01:25:08;;;;;;;6.82;6.13;;;4.40;92.70;;;;;;5028629;28;20271;-70
2022/03/24 01:27:34;;;;;;;8.73;5.65;;;4.40;92.90;;;;;;5032848;28;20204;-70
2022/03/24 01:30:00;;;;;;;9.60;5.40;;;4.30;93.10;;;;;;5027815;28;20207;-70
2022/03/24 01:32:27;;;;;;;9.85;5.40;;;4.30;93.40;;;;;;5014208;28;20182;-70
2022/03/24 01:34:54;;;;;;;7.72;6.65;;;4.30;93.90;;;;;;5013523;28;20256;-70
2022/03/24 01:37:22;;;;;;;8.50;6.20;;;4.30;94.20;;;;;;5014033;28;20173;-70
2022/03/24 01:39:47;;;;;;;8.13;5.88;;;4.30;94.50;;;;;;5017828;28;20196;-70
2022/03/24 01:42:13;;;;;;;7.20;5.80;;;4.20;94.80;;;;;;5033626;28;20174;-70
2022/03/24 01:44:39;;;;;;;14.23;6.23;;;4.20;94.90;;;;;;5033235;28;20425;-70
2022/03/24 01:47:09;;;;;;;10.43;5.70;;;4.20;95.00;;;;;;5033833;28;20174;-70
2022/03/24 01:49:40;;;;;;;4.82;4.35;;;4.20;95.10;;;;;;5032944;28;20756;-70
2022/03/24 01:52:13;;;;;;;8.25;6.13;;;4.20;95.20;;;;;;5033262;28;20178;-70
2022/03/24 01:54:43;;;;;;;7.57;6.03;;;4.30;95.20;;;;;;5033212;28;20225;-70
2022/03/24 01:57:11;;;;;;;6.78;6.03;;;4.20;95.10;;;;;;5033778;28;20173;-69
2022/03/24 01:59:37;;;;;;;8.25;5.45;;;4.20;95.50;;;;;;5033412;28;20169;-71
2022/03/24 02:02:04;;;;;;;5.75;5.18;;;4.20;95.50;;;;;;5013958;28;20224;-70
2022/03/24 02:04:32;;;;;;;5.80;5.15;;;4.10;95.50;;;;;;5013413;28;20186;-69
2022/03/24 02:06:58;;;;;;;9.15;6.18;;;4.10;95.80;;;;;;5013921;28;20510;-71
2022/03/24 02:09:24;;;;;;;8.60;5.83;;;4.00;95.90;;;;;;5012309;28;20205;-70
2022/03/24 02:11:49;;;;;;;6.90;5.97;;;4.10;95.90;;;;;;5014531;28;20266;-70
2022/03/24 02:14:15;;;;;;;7.07;5.67;;;4.00;95.90;;;;;;5013115;28;20661;-70
2022/03/24 02:16:41;;;;;;;6.77;5.17;;;3.90;95.90;;;;;;5013407;28;20641;-70
2022/03/24 02:19:11;;;;;;;8.60;6.93;;;3.90;96.20;;;;;;5013609;28;20173;-70
2022/03/24 02:21:42;;;;;;;8.55;6.28;;;3.90;96.40;;;;;;5014931;28;20189;-69
2022/03/24 02:24:09;;;;;;;8.25;5.40;;;3.80;96.50;;;;;;5011939;28;20179;-72
2022/03/24 02:26:36;;;;;;;11.77;5.75;;;3.80;96.40;;;;;;5013997;28;20649;-71
2022/03/24 02:29:06;;;;;;;8.48;5.70;;;3.80;96.60;;;;;;5033277;28;20224;-71
2022/03/24 02:31:38;;;;;;;8.23;6.32;;;3.70;97.10;;;;;;5032527;28;20201;-71
2022/03/24 02:36:50;;;;;;;6.97;5.78;;;3.70;97.30;;;;;;5021520;28;20233;-71
2022/03/24 02:39:16;;;;;;;11.73;6.30;;;3.70;97.60;;;;;;5030547;28;20186;-71
2022/03/24 02:41:51;;;;;;;6.70;5.20;;;3.70;97.70;;;;;;5032994;28;20172;-70
2022/03/24 02:44:28;;;;;;;8.65;6.43;;;3.70;97.80;;;;;;5032823;28;20478;-70
2022/03/24 02:46:55;;;;;;;9.32;4.90;;;3.70;97.80;;;;;;5031479;28;20210;-70
2022/03/24 02:49:24;;;;;;;7.20;4.40;;;3.70;97.90;;;;;;5033001;28;20188;-70
2022/03/24 02:51:51;;;;;;;5.45;4.95;;;3.60;98.20;;;;;;5032878;28;20169;-72
2022/03/24 02:54:18;;;;;;;10.80;5.70;;;3.50;98.30;;;;;;5032478;28;20198;-73
2022/03/24 02:56:45;;;;;;;10.88;6.53;;;3.50;98.40;;;;;;5021508;28;20273;-70
2022/03/24 02:59:12;;;;;;;8.57;6.85;;;3.50;98.40;;;;;;5013448;28;20171;-70
2022/03/24 03:01:42;;;;;;;6.53;5.35;;;3.50;98.70;;;;;;5013153;28;20182;-70
2022/03/24 03:04:09;;;;;;;6.25;4.40;;;3.50;98.80;;;;;;5012674;28;20198;-70
2022/03/24 03:06:36;;;;;;;6.35;5.60;;;3.40;99.10;;;;;;5026233;28;20181;-70
2022/03/24 03:09:02;;;;;;;7.10;6.03;;;3.30;99.20;;;;;;5036713;28;20239;-69
2022/03/24 03:11:31;;;;;;;5.95;4.30;;;3.30;99.50;;;;;;5036488;28;20296;-70
2022/03/24 03:13:58;;;;;;;7.88;5.75;;;3.30;99.60;;;;;;5035970;28;20639;-70
2022/03/24 03:16:25;;;;;;;8.20;5.75;;;3.30;99.70;;;;;;5028031;28;20732;-71
2022/03/24 03:18:51;;;;;;;15.63;5.15;;;3.20;99.70;;;;;;5016610;28;20175;-70
2022/03/24 03:21:17;;;;;;;9.50;5.80;;;3.30;99.90;;;;;;5016355;28;20171;-70
2022/03/24 03:23:44;;;;;;;7.88;5.00;;;3.20;99.90;;;;;;5016254;28;20253;-69
2022/03/24 03:26:11;;;;;;;9.35;5.47;;;3.10;99.90;;;;;;5020510;28;20204;-70
2022/03/24 03:28:38;;;;;;;8.23;4.85;;;3.10;99.90;;;;;;5036364;28;20548;-70
2022/03/24 03:31:05;;;;;;;8.32;6.07;;;3.10;99.90;;;;;;5036097;28;20178;-71
2022/03/24 03:33:32;;;;;;;9.23;5.70;;;3.10;99.90;;;;;;5035664;28;20240;-69
2022/03/24 03:35:58;;;;;;;9.82;6.32;;;3.10;99.90;;;;;;5035517;28;20186;-69
2022/03/24 03:38:24;;;;;;;7.97;5.47;;;3.10;99.90;;;;;;5035959;28;20637;-69
2022/03/24 03:40:50;;;;;;;6.90;5.43;;;3.10;99.90;;;;;;5035944;28;20488;-70
2022/03/24 03:43:17;;;;;;;13.27;7.50;;;3.10;99.90;;;;;;5035462;28;20201;-70
2022/03/24 03:45:44;;;;;;;5.57;4.38;;;3.10;99.90;;;;;;5035601;28;20280;-70
2022/03/24 03:48:11;;;;;;;15.05;6.82;;;3.00;99.90;;;;;;5015143;28;20178;-70
2022/03/24 03:50:38;;;;;;;7.03;5.72;;;3.00;99.90;;;;;;5015995;28;20163;-70
2022/03/24 03:53:03;;;;;;;5.65;5.07;;;3.00;99.90;;;;;;5015842;28;20217;-71
2022/03/24 03:55:30;;;;;;;5.63;4.83;;;3.00;99.90;;;;;;5015982;28;20720;-71
2022/03/24 03:57:56;;;;;;;6.80;5.72;;;3.00;99.90;;;;;;5031185;28;20417;-69
2022/03/24 04:03:06;;;;;;;5.63;5.10;;;2.90;99.90;;;;;;5035298;28;20217;-71
2022/03/24 04:05:33;;;;;;;6.60;5.40;;;2.90;99.90;;;;;;5035659;28;20190;-70
2022/03/24 04:08:04;;;;;;;6.68;5.13;;;2.80;99.90;;;;;;5030885;28;20221;-70
2022/03/24 04:10:30;;;;;;;6.15;4.85;;;2.80;99.90;;;;;;5035608;28;20166;-71
2022/03/24 04:12:57;;;;;;;11.27;6.38;;;2.70;99.90;;;;;;5035504;28;20261;-70
2022/03/24 04:15:23;;;;;;;7.65;6.00;;;2.70;99.90;;;;;;5034498;28;20280;-70
2022/03/24 04:17:50;;;;;;;5.93;4.85;;;2.70;99.90;;;;;;5020507;28;20573;-69
2022/03/24 04:20:20;;;;;;;8.02;4.60;;;2.60;99.90;;;;;;5015491;28;20167;-70
2022/03/24 04:22:50;;;;;;;8.25;5.88;;;2.60;99.90;;;;;;5016381;28;20175;-71
2022/03/24 04:25:17;;;;;;;6.82;5.25;;;2.60;99.90;;;;;;5015122;28;20797;-69
2022/03/24 04:27:42;;;;;;;6.85;5.28;;;2.50;99.90;;;;;;5015463;28;20525;-70
2022/03/24 04:30:08;;;;;;;11.57;7.67;;;2.50;99.90;;;;;;5015186;28;20171;-70
2022/03/24 04:32:34;;;;;;;4.75;4.22;;;2.50;99.90;;;;;;5030331;28;20174;-69
2022/03/24 04:35:00;;;;;;;7.80;4.27;;;2.50;99.90;;;;;;5034341;28;20280;-70
2022/03/24 04:37:26;;;;;;;10.05;5.25;;;2.50;99.90;;;;;;5034822;28;20177;-70
2022/03/24 04:39:51;;;;;;;5.43;5.00;;;2.50;99.90;;;;;;5035082;28;20170;-70
2022/03/24 04:42:17;;;;;;;5.47;4.87;;;2.50;99.90;;;;;;5023362;28;20171;-71
2022/03/24 04:44:43;;;;;;;6.93;4.30;;;2.50;99.90;;;;;;5014810;28;20276;-71
2022/03/24 04:47:08;;;;;;;8.20;5.87;;;2.40;99.90;;;;;;5014967;28;20206;-71
2022/03/24 04:49:34;;;;;;;4.37;3.70;;;2.40;99.90;;;;;;5021233;28;20178;-71
2022/03/24 04:52:00;;;;;;;6.43;4.23;;;2.40;99.90;;;;;;5019844;28;20190;-71
2022/03/24 04:54:26;;;;;;;8.23;5.80;;;2.40;99.90;;;;;;5014324;28;20565;-71
2022/03/24 04:56:51;;;;;;;6.75;5.68;;;2.40;99.90;;;;;;5014709;28;20405;-71
2022/03/24 04:59:17;;;;;;;6.03;5.27;;;2.40;99.90;;;;;;5018831;28;20565;-71
2022/03/24 05:01:43;;;;;;;8.70;5.67;;;2.40;99.90;;;;;;5034387;28;20170;-71
2022/03/24 05:04:08;;;;;;;5.97;5.00;;;2.30;99.90;;;;;;5033883;28;20212;-70
2022/03/24 05:06:34;;;;;;;7.07;6.47;;;2.30;99.90;;;;;;5034776;28;20252;-70
2022/03/24 05:09:00;;;;;;;6.57;5.70;;;2.30;99.90;;;;;;5034372;28;20178;-70
2022/03/24 05:11:25;;;;;;;12.00;6.83;;;2.30;99.90;;;;;;5034239;28;20166;-70
2022/03/24 05:13:51;;;;;;;11.30;6.97;;;2.30;99.90;;;;;;5033925;28;20595;-70
2022/03/24 05:16:18;;;;;;;6.17;5.00;;;2.30;99.90;;;;;;5034570;28;20232;-70
2022/03/24 05:18:44;;;;;;;11.35;7.18;;;2.30;99.90;;;;;;5034692;28;20401;-70
2022/03/24 05:21:10;;;;;;;6.78;5.55;;;2.40;99.90;;;;;;5032681;28;20189;-69
2022/03/24 05:23:36;;;;;;;12.15;6.90;;;2.40;99.90;;;;;;5034163;28;20174;-70
2022/03/24 05:26:02;;;;;;;6.47;4.90;;;2.40;99.90;;;;;;5034154;28;20668;-70
2022/03/24 05:28:27;;;;;;;7.55;5.35;;;2.50;99.90;;;;;;5033428;28;20509;-69
2022/03/24 05:30:53;;;;;;;6.60;4.53;;;2.50;99.90;;;;;;5018265;28;20281;-70
2022/03/24 05:33:19;;;;;;;11.33;5.30;;;2.50;99.90;;;;;;5013867;28;20174;-70
2022/03/24 05:35:44;;;;;;;8.77;6.07;;;2.60;99.90;;;;;;5026200;28;20197;-70
2022/03/24 05:38:10;;;;;;;7.07;5.57;;;2.70;99.90;;;;;;5040260;28;20182;-70
2022/03/24 05:40:36;;;;;;;6.47;5.47;;;2.80;99.90;;;;;;5032804;28;20575;-70
2022/03/24 05:43:02;;;;;;;9.73;5.60;;;2.80;99.90;;;;;;5033722;28;20189;-70
2022/03/24 05:45:29;;;;;;;5.93;5.35;;;2.90;99.90;;;;;;5032168;28;20548;-70
2022/03/24 05:47:55;;;;;;;9.27;5.65;;;3.00;99.90;;;;;;5033641;28;20174;-71
2022/03/24 05:50:20;;;;;;;7.43;5.40;;;3.00;99.90;;;;;;5020777;28;20194;-69
2022/03/24 05:52:49;;;;;;;9.63;6.30;;;3.20;99.90;;;;;;5013729;28;20174;-69
2022/03/24 05:55:16;;;;;;;9.90;8.00;;;3.30;99.90;;;;;;5015146;28;20207;-71
2022/03/24 05:57:45;;;;;;;7.47;6.00;;;3.50;99.90;;;;;;5045977;28;20238;-70
2022/03/24 06:00:12;;;;;;;6.65;5.72;;;3.60;99.90;;;;;;5022738;28;20177;-69
2022/03/24 06:02:38;;;;;;;7.45;6.00;;;3.80;99.90;;;;;;5047036;28;20192;-68
2022/03/24 06:05:05;;;;;;;8.02;6.07;;;3.90;99.90;;;;;;5051041;28;20234;-70
2022/03/24 06:07:33;;;;;;;6.95;6.18;;;4.00;99.90;;;;;;5050151;28;20272;-69
2022/03/24 06:09:58;;;;;;;9.50;6.70;;;4.10;99.90;;;;;;5043227;28;20178;-69
2022/03/24 06:12:25;;;;;;;10.97;7.07;;;4.20;99.90;;;;;;5031213;28;20177;-69
2022/03/24 06:14:51;;;;;;;9.77;5.68;;;4.40;99.90;;;;;;5031888;28;20241;-69
2022/03/24 06:17:20;;;;;;;13.55;6.72;;;4.50;99.90;;;;;;5032380;28;20166;-68
2022/03/24 06:19:50;;;;;;;12.48;9.73;;;4.70;99.90;;;;;;5025764;28;20175;-68
2022/03/24 06:22:16;;;;;;;13.38;8.13;;;4.80;99.90;;;;;;5011864;28;20174;-68
2022/03/24 06:24:43;;;;;;;7.40;6.07;;;5.10;99.90;;;;;;5013107;28;20194;-69
2022/03/24 06:27:09;;;;;;;11.75;6.90;;;5.30;99.30;;;;;;5013311;28;20558;-68
2022/03/24 06:29:35;;;;;;;11.40;6.10;;;5.50;98.20;;;;;;5013103;28;20221;-68
2022/03/24 06:32:01;;;;;;;11.40;6.53;;;5.80;97.60;;;;;;5031218;28;20437;-68
2022/03/24 06:34:27;;;;;;;10.77;7.43;;;6.10;97.00;;;;;;5032640;28;20198;-68
2022/03/24 06:36:56;;;;;;;6.87;5.50;;;6.50;96.30;;;;;;5033267;28;20591;-68
2022/03/24 06:39:22;;;;;;;9.65;7.13;;;6.80;95.00;;;;;;5035273;28;20407;-68
2022/03/24 06:41:48;;;;;;;9.38;8.30;;;7.00;94.60;;;;;;5035074;28;20231;-68
2022/03/24 06:44:14;;;;;;;11.80;7.27;;;7.30;94.10;;;;;;5036597;28;20174;-68
2022/03/24 06:46:40;;;;;;;7.90;6.05;;;7.60;93.70;;;;;;5037017;28;20500;-69
2022/03/24 06:49:07;;;;;;;8.97;8.07;;;8.00;93.20;;;;;;5034945;28;20570;-70
2022/03/24 06:51:33;;;;;;;9.23;7.00;;;8.40;92.40;;;;;;5034895;28;20431;-69
2022/03/24 06:54:00;;;;;;;13.57;7.85;;;8.80;91.70;;;;;;5036235;28;20201;-68
2022/03/24 06:56:26;;;;;;;7.43;6.38;;;9.10;90.70;;;;;;5036359;28;20224;-68
2022/03/24 06:58:52;;;;;;;14.50;8.27;;;9.50;89.90;;;;;;5036663;28;20202;-67
2022/03/24 07:01:18;;;;;;;15.30;9.20;;;9.80;88.70;;;;;;5032319;28;20714;-68
2022/03/24 07:03:44;;;;;;;12.80;8.40;;;10.20;85.90;;;;;;5036166;28;20232;-68
2022/03/24 07:06:10;;;;;;;13.80;9.47;;;10.50;84.00;;;;;;5036297;28;20278;-68
2022/03/24 07:08:36;;;;;;;11.17;8.00;;;11.00;82.90;;;;;;5036156;28;20422;-68
2022/03/24 07:11:05;;;;;;;15.93;8.87;;;11.50;81.00;;;;;;5035854;28;20323;-67
2022/03/24 07:13:31;;;;;;;8.20;7.40;;;12.10;76.90;;;;;;5034346;28;20205;-66
2022/03/24 07:15:56;;;;;;;9.00;8.07;;;12.60;75.90;;;;;;5036087;28;20428;-68
2022/03/24 07:18:22;;;;;;;11.70;7.97;;;13.20;72.30;;;;;;5036084;28;20693;-68
2022/03/24 07:20:50;;;;;;;8.90;7.67;;;13.80;71.30;;;;;;5032897;28;20171;-69
2022/03/24 07:23:17;;;;;;;11.10;8.00;;;14.30;70.30;;;;;;5014584;28;20171;-70
2022/03/24 07:25:43;;;;;;;10.57;8.60;;;14.90;67.10;;;;;;5014876;28;20465;-69
2022/03/24 07:28:11;;;;;;;12.23;7.70;;;15.50;64.00;;;;;;5016160;28;20437;-70
2022/03/24 07:30:37;;;;;;;9.80;8.63;;;15.80;63.90;;;;;;5027144;28;20170;-71
2022/03/24 07:33:04;;;;;;;12.73;7.90;;;16.20;61.10;;;;;;5032970;28;20409;-71
2022/03/24 07:35:33;;;;;;;9.90;8.27;;;16.40;60.00;;;;;;5034859;28;20488;-72
2022/03/24 07:37:58;;;;;;;8.87;8.03;;;16.30;59.00;;;;;;5034686;28;20413;-71
2022/03/24 07:40:24;;;;;;;10.00;8.40;;;15.90;59.30;;;;;;5033322;28;20993;-73
2022/03/24 07:42:52;;;;;;;8.60;7.80;;;15.60;60.00;;;;;;5035909;28;20225;-71
2022/03/24 07:45:20;;;;;;;10.33;8.77;;;15.60;59.50;;;;;;5035393;28;20788;-71
2022/03/24 07:48:12;;;;;;;12.60;8.40;;;15.80;59.80;;;;;;5033789;28;20431;-72
2022/03/24 07:50:41;;;;;;;9.77;8.50;;;16.20;60.40;;;;;;5032995;28;20422;-71
2022/03/24 07:53:30;;;;;;;10.20;8.53;;;16.90;59.50;;;;;;5054802;28;20482;-70
2022/03/24 07:55:58;;;;;;;12.70;9.77;;;17.60;58.10;;;;;;5025763;28;20450;-71
2022/03/24 07:58:23;;;;;;;11.90;9.40;;;18.20;57.70;;;;;;5015339;28;20413;-70
2022/03/24 08:00:50;;;;;;;9.23;8.33;;;18.70;56.60;;;;;;5029762;28;20421;-71
2022/03/24 08:03:18;;;;;;;13.90;11.47;;;19.40;55.40;;;;;;5033317;28;20190;-71
2022/03/24 08:05:44;;;;;;;12.63;8.97;;;20.00;54.20;;;;;;5033879;28;20487;-71
2022/03/24 08:08:10;;;;;;;12.13;9.57;;;20.30;53.80;;;;;;5052948;28;20390;-68
2022/03/24 08:10:41;;;;;;;11.73;9.07;;;20.50;53.00;;;;;;5036751;28;20430;-69
2022/03/24 08:13:07;;;;;;;11.20;8.93;;;20.60;51.70;;;;;;5034493;28;20405;-71
2022/03/24 08:15:35;;;;;;;9.80;8.80;;;20.90;51.90;;;;;;5034850;28;20475;-70
2022/03/24 08:18:00;;;;;;;12.63;10.00;;;21.40;51.40;;;;;;5034499;28;20376;-71
2022/03/24 08:20:26;;;;;;;12.43;10.03;;;21.90;50.20;;;;;;5023986;28;20441;-69
2022/03/24 08:22:54;;;;;;;14.17;11.00;;;22.20;50.00;;;;;;5014083;28;20167;-70
2022/03/24 08:25:20;;;;;;;14.40;11.13;;;22.60;48.70;;;;;;5015471;28;20256;-70
2022/03/24 08:27:46;;;;;;;11.20;10.00;;;22.90;48.00;;;;;;5014863;28;20384;-69
2022/03/24 08:30:12;;;;;;;11.20;10.10;;;23.10;47.30;;;;;;5016607;28;20186;-69
2022/03/24 08:32:39;;;;;;;11.97;9.93;;;23.40;46.40;;;;;;5034962;28;20205;-70
2022/03/24 08:35:05;;;;;;;11.77;10.57;;;23.50;46.20;;;;;;5034095;28;20534;-70
2022/03/24 08:37:31;;;;;;;13.40;11.77;;;23.60;46.70;;;;;;5034379;28;20428;-69
2022/03/24 08:39:57;;;;;;;11.80;10.57;;;23.50;46.30;;;;;;5028525;28;20903;-70
2022/03/24 08:42:23;;;;;;;11.33;9.47;;;23.40;46.20;;;;;;5014410;28;20171;-67
2022/03/24 08:44:49;;;;;;;11.30;10.20;;;23.60;46.00;;;;;;5014091;28;20195;-71
2022/03/24 08:47:15;;;;;;;12.20;10.53;;;23.80;45.20;;;;;;5014854;28;20451;-67
2022/03/24 08:49:41;;;;;;;13.00;10.40;;;24.00;44.90;;;;;;5027877;28;20403;-68
2022/03/24 08:52:07;;;;;;;13.80;11.67;;;24.20;45.10;;;;;;5034551;28;20459;-69
2022/03/24 08:54:33;;;;;;;12.17;10.93;;;24.40;44.70;;;;;;5033770;28;20431;-71
2022/03/24 08:56:58;;;;;;;11.40;10.20;;;24.40;44.70;;;;;;5034416;28;20383;-70
2022/03/24 08:59:24;;;;;;;12.30;11.00;;;24.40;43.80;;;;;;5031510;28;20170;-72
2022/03/24 09:01:50;;;;;;;17.43;11.70;;;24.40;45.00;;;;;;5034273;28;20198;-71
2022/03/24 09:04:16;;;;;;;12.50;10.77;;;24.60;43.90;;;;;;5032474;28;20189;-72
2022/03/24 09:06:46;;;;;;;11.70;10.47;;;24.80;44.00;;;;;;5033767;28;20166;-71
2022/03/24 09:09:11;;;;;;;13.63;10.77;;;24.80;43.80;;;;;;5025052;28;20501;-70
2022/03/24 09:11:37;;;;;;;15.00;11.80;;;24.90;43.20;;;;;;5014217;28;20448;-70
2022/03/24 09:14:03;;;;;;;13.13;11.37;;;25.00;43.80;;;;;;5018036;28;20217;-70
2022/03/24 09:16:29;;;;;;;13.63;11.43;;;25.10;44.40;;;;;;5031811;28;20202;-69
2022/03/24 09:18:54;;;;;;;13.40;12.00;;;25.60;44.40;;;;;;5032307;28;20401;-71
2022/03/24 09:21:20;;;;;;;13.27;11.50;;;26.10;43.20;;;;;;5033938;28;20655;-71
2022/03/24 09:23:46;;;;;;;14.73;11.37;;;26.50;42.10;;;;;;5029887;28;20186;-71
2022/03/24 09:26:12;;;;;;;13.50;11.10;;;26.90;41.50;;;;;;5013124;28;20669;-71
2022/03/24 09:28:38;;;;;;;19.07;12.53;;;26.80;41.00;;;;;;5032998;28;20392;-69
2022/03/24 09:31:04;;;;;;;13.73;12.40;;;26.70;40.50;;;;;;5020898;28;20175;-70
2022/03/24 09:33:30;;;;;;;13.70;12.23;;;26.70;40.20;;;;;;5013527;28;20182;-72
2022/03/24 09:35:56;;;;;;;14.90;12.97;;;26.80;39.80;;;;;;5013708;28;20277;-71
2022/03/24 09:38:22;;;;;;;13.73;12.00;;;26.70;39.40;;;;;;5026278;28;20228;-70
2022/03/24 09:40:50;;;;;;;14.10;12.60;;;26.80;38.90;;;;;;5013754;28;20472;-71
2022/03/24 09:43:18;;;;;;;17.13;12.73;;;27.00;38.30;;;;;;5013144;28;20410;-71
2022/03/24 09:45:46;;;;;;;13.80;12.50;;;27.00;38.40;;;;;;5017823;28;20429;-71
2022/03/24 09:48:12;;;;;;;16.73;13.17;;;26.80;37.60;;;;;;5033463;28;20405;-71
2022/03/24 09:50:39;;;;;;;15.13;13.50;;;26.90;38.20;;;;;;5033658;28;20375;-71
2022/03/24 09:53:06;;;;;;;15.87;11.37;;;27.30;39.00;;;;;;5033178;28;20499;-71
2022/03/24 09:55:36;;;;;;;16.20;12.30;;;27.70;38.00;;;;;;5030340;28;20415;-71
2022/03/24 09:58:02;;;;;;;13.53;12.23;;;27.70;38.30;;;;;;5013718;28;20411;-71
2022/03/24 10:00:28;;;;;;;15.33;12.53;;;27.80;38.70;;;;;;5013760;28;20402;-69
2022/03/24 10:03:07;;;;;;;14.73;13.17;;;27.90;38.50;;;;;;5013317;28;20432;-69
2022/03/24 10:05:33;;;;;;;14.60;13.00;;;28.20;38.20;;;;;;5014799;28;20540;-69
2022/03/24 10:08:06;;;;;;;12.93;11.60;;;28.30;38.30;;;;;;5026938;28;20496;-70
2022/03/24 10:10:34;;;;;;;13.50;11.87;;;27.90;37.20;;;;;;4995975;28;20558;-70
2022/03/24 10:13:04;;;;;;;14.43;11.07;;;27.70;37.00;;;;;;5013000;28;20417;-70
2022/03/24 10:15:29;;;;;;;15.13;12.17;;;27.30;36.40;;;;;;5013372;28;20429;-72
2022/03/24 10:17:57;;;;;;;12.60;11.20;;;27.00;35.50;;;;;;5033068;28;20390;-71
2022/03/24 10:20:28;;;;;;;13.77;12.37;;;27.10;35.80;;;;;;5033419;28;20170;-69
2022/03/24 10:22:57;;;;;;;11.93;10.73;;;27.20;35.70;;;;;;5033404;28;20384;-71
2022/03/24 10:25:33;;;;;;;12.23;10.67;;;27.20;36.40;;;;;;5032973;28;20547;-69
2022/03/24 10:28:08;;;;;;;12.83;10.93;;;27.60;36.80;;;;;;5014019;28;20396;-70
2022/03/24 10:30:58;;;;;;;12.50;11.20;;;27.80;35.80;;;;;;5012137;28;20417;-70
2022/03/24 10:33:37;;;;;;;12.30;10.57;;;27.80;34.30;;;;;;5012916;28;21333;-71
2022/03/24 10:36:20;;;;;;;11.10;9.97;;;27.60;33.80;;;;;;5013319;28;20426;-71
2022/03/24 10:38:48;;;;;;;14.37;11.20;;;27.60;34.00;;;;;;5013702;28;20409;-69
2022/03/24 10:41:21;;;;;;;12.60;11.20;;;27.60;34.90;;;;;;5013039;28;20847;-71
2022/03/24 10:43:49;;;;;;;14.60;11.80;;;27.50;36.50;;;;;;5032617;28;20439;-69
2022/03/24 10:46:22;;;;;;;12.50;10.67;;;27.40;37.20;;;;;;5031012;28;20410;-72
2022/03/24 10:48:50;;;;;;;15.53;11.73;;;27.20;37.10;;;;;;5031973;28;20477;-70
2022/03/24 10:51:27;;;;;;;13.70;10.93;;;27.00;37.10;;;;;;5031773;28;20383;-71
2022/03/24 10:54:15;;;;;;;13.20;11.80;;;27.00;38.00;;;;;;5032924;28;20383;-71
2022/03/24 10:56:46;;;;;;;14.17;10.67;;;26.70;36.90;;;;;;5022059;28;20442;-73
2022/03/24 10:59:12;;;;;;;12.77;10.00;;;26.50;37.40;;;;;;5011999;28;20479;-70
2022/03/24 11:01:38;;;;;;;16.13;10.73;;;26.50;37.80;;;;;;5013039;28;20560;-70
2022/03/24 11:04:03;;;;;;;13.60;11.17;;;26.60;37.20;;;;;;5011104;28;20290;-70
2022/03/24 11:06:30;;;;;;;13.50;10.50;;;26.40;36.80;;;;;;5021853;28;20643;-69
2022/03/24 11:09:01;;;;;;;10.90;9.53;;;26.30;38.00;;;;;;5032605;28;20745;-69
2022/03/24 11:11:28;;;;;;;11.33;10.17;;;26.20;36.80;;;;;;5032678;28;20403;-72
2022/03/24 11:14:00;;;;;;;11.73;10.50;;;26.10;37.60;;;;;;5032248;28;20536;-70
2022/03/24 11:16:32;;;;;;;15.33;12.40;;;26.00;37.20;;;;;;5023477;28;20434;-68
2022/03/24 11:19:00;;;;;;;12.70;10.60;;;25.40;38.40;;;;;;5012735;28;20373;-70
2022/03/24 11:21:43;;;;;;;14.40;9.80;;;24.60;39.40;;;;;;5012864;28;20405;-69
2022/03/24 11:24:09;;;;;;;11.90;9.20;;;23.80;40.20;;;;;;5012084;28;20543;-75
2022/03/24 11:26:35;;;;;;;11.97;10.00;;;23.10;39.70;;;;;;5024314;28;20507;-69
2022/03/24 11:29:02;;;;;;;12.50;9.10;;;22.50;38.40;;;;;;5036371;28;20487;-71
2022/03/24 11:31:28;;;;;;;11.77;8.57;;;21.70;38.50;;;;;;5035898;28;20408;-70
2022/03/24 11:33:56;;;;;;;10.10;8.87;;;21.20;38.90;;;;;;5035443;28;20411;-69
2022/03/24 11:36:23;;;;;;;9.80;8.53;;;20.70;38.50;;;;;;5027693;28;20451;-70
2022/03/24 11:38:52;;;;;;;10.70;8.17;;;20.40;37.90;;;;;;5019575;28;20478;-68
2022/03/24 11:41:21;;;;;;;9.93;7.93;;;20.10;37.20;;;;;;5035494;28;20760;-70
2022/03/24 11:43:53;;;;;;;11.40;7.47;;;20.00;37.40;;;;;;5035511;28;20448;-70
2022/03/24 11:46:52;;;;;;;8.97;6.33;;;19.90;38.50;;;;;;5026831;28;20776;-69
2022/03/24 11:49:27;;;;;;;10.10;7.40;;;19.70;39.00;;;;;;5014551;28;20402;-68
2022/03/24 11:51:56;;;;;;;11.17;8.30;;;19.70;40.20;;;;;;5015997;28;20454;-69
2022/03/24 11:54:35;;;;;;;10.33;8.47;;;19.60;37.40;;;;;;5014068;28;20544;-68
2022/03/24 11:57:31;;;;;;;9.10;7.37;;;19.60;37.60;;;;;;5027654;28;20417;-70
2022/03/24 12:00:15;;;;;;;9.40;6.97;;;19.40;37.60;;;;;;5034368;28;20513;-70
2022/03/24 12:02:45;;;;;;;10.47;7.73;;;19.30;38.80;;;;;;5033765;28;20442;-68
2022/03/24 12:05:12;;;;;;;8.37;6.90;;;19.30;39.80;;;;;;5036141;28;20514;-69
2022/03/24 12:07:38;;;;;;;8.67;7.30;;;19.30;39.20;;;;;;5020642;28;20768;-70
2022/03/24 12:10:09;;;;;;;9.47;7.20;;;19.40;38.70;;;;;;5015836;28;20406;-71
2022/03/24 12:12:59;;;;;;;12.57;8.70;;;19.30;39.80;;;;;;5016003;28;20406;-69
2022/03/24 12:15:25;;;;;;;13.90;7.70;;;19.40;39.10;;;;;;5015704;28;20437;-68
2022/03/24 12:18:05;;;;;;;12.33;8.10;;;19.40;40.30;;;;;;5033650;28;20938;-69
2022/03/24 12:21:03;;;;;;;13.13;7.63;;;19.40;38.90;;;;;;5035145;28;20181;-70
2022/03/24 12:24:12;;;;;;;9.77;6.87;;;19.40;39.20;;;;;;5034630;28;20430;-69
2022/03/24 12:26:59;;;;;;;9.67;7.53;;;19.30;39.80;;;;;;5024392;28;20434;-69
2022/03/24 12:29:27;;;;;;;9.20;7.63;;;19.40;39.40;;;;;;5027708;28;20428;-68
2022/03/24 12:32:11;;;;;;;10.50;8.07;;;19.40;40.00;;;;;;5025189;28;20440;-67
2022/03/24 12:34:39;;;;;;;11.07;7.60;;;19.30;39.80;;;;;;5034581;28;20431;-68
2022/03/24 12:37:06;;;;;;;9.93;7.47;;;19.30;39.80;;;;;;5022498;28;20955;-68
2022/03/24 12:39:36;;;;;;;13.20;8.80;;;19.30;40.30;;;;;;5014844;28;20903;-66
2022/03/24 12:42:03;;;;;;;10.23;8.03;;;19.30;40.70;;;;;;5015258;28;20411;-69
2022/03/24 12:44:55;;;;;;;9.17;6.93;;;19.40;40.00;;;;;;5016909;28;20457;-66
2022/03/24 12:47:36;;;;;;;11.50;8.03;;;19.40;39.10;;;;;;5034454;28;20412;-65
2022/03/24 12:50:16;;;;;;;8.30;7.37;;;19.40;40.30;;;;;;5034614;28;20435;-66
2022/03/24 12:53:02;;;;;;;14.30;8.30;;;19.40;40.50;;;;;;5034509;28;20898;-66
2022/03/24 12:55:44;;;;;;;10.07;8.93;;;19.40;39.80;;;;;;5023432;28;20501;-68
2022/03/24 12:58:18;;;;;;;11.17;7.73;;;19.40;39.60;;;;;;5014473;28;20419;-67